TGPY/GND METAR and TAF weather

Enter ICAO airport designator
Station Type Date Time Source
TGPY METAR 2022/12/04 04:00 UTC NOAA

TGPY 040400Z 00000KT 9999 FEW017 24/22 Q1010 NOSIG


Station Type Date Time Source
TGPY Decoded METAR 2022/12/04 04:00 UTC NOAA

Point Salines Airport, Grenada (TGPY) 12-00N 061-47W 7M
Dec 03, 2022 - 11:00 PM EST / 2022.12.04 0400 UTC
Wind: Calm:0
Visibility: greater than 7 mile(s):0
Sky conditions: mostly clear
Temperature: 75 F (24 C)
Dew Point: 71 F (22 C)
Relative Humidity: 88%
Pressure (altimeter): 29.83 in. Hg (1010 hPa)
ob: TGPY 040400Z 00000KT 9999 FEW017 24/22 Q1010 NOSIG
cycle: 4

Station Type Date Time Source
TGPY TAF 2022/12/04 06:37 UTC NOAA

TAF TGPY 040400Z 0406/0506 00000KT 9999 FEW019
BECMG 0410/0412 07014KT

Example: see airport list